Time;durP1;ratioP1;P1;durP2;ratioP2;P2;SDS_P1;SDS_P2;PMS_P1;PMS_P2;Temp;Humidity;BMP_temperature;BMP_pressure;BME280_temperature;BME280_humidity;BME280_pressure;Samples;Min_cycle;Max_cycle;Signal;HPM_P1;HPM_P2
2021/12/06 00:00:22;;;;;;;43.95;33.08;;;2.50;1.00;;;;;;4998948;28;20227;-76
2021/12/06 00:02:50;;;;;;;46.90;32.42;;;2.50;1.00;;;;;;4997113;28;20226;-76
2021/12/06 00:05:18;;;;;;;43.80;31.10;;;2.50;1.00;;;;;;4996784;28;20242;-75
2021/12/06 00:07:45;;;;;;;43.85;30.23;;;2.50;1.00;;;;;;4993656;28;20234;-76
2021/12/06 00:10:14;;;;;;;46.35;30.35;;;2.50;1.00;;;;;;4995672;28;20282;-74
2021/12/06 00:12:43;;;;;;;44.63;33.13;;;2.40;1.00;;;;;;4995788;28;20298;-75
2021/12/06 00:15:11;;;;;;;47.55;31.17;;;2.40;1.00;;;;;;4996915;28;20222;-74
2021/12/06 00:17:38;;;;;;;42.28;30.65;;;2.40;1.00;;;;;;4995881;28;21162;-75
2021/12/06 00:20:08;;;;;;;44.55;29.83;;;2.40;1.00;;;;;;4992944;28;20257;-76
2021/12/06 00:22:35;;;;;;;38.10;29.40;;;2.50;1.00;;;;;;4995110;28;20233;-75
2021/12/06 00:25:02;;;;;;;44.97;31.27;;;2.50;1.00;;;;;;4993895;28;20391;-76
2021/12/06 00:27:32;;;;;;;44.13;31.05;;;2.50;1.00;;;;;;4977616;28;20299;-75
2021/12/06 00:29:59;;;;;;;43.50;30.85;;;2.40;1.00;;;;;;4994262;28;20215;-75
2021/12/06 00:32:26;;;;;;;45.08;31.10;;;2.40;1.00;;;;;;4993863;28;20266;-74
2021/12/06 00:34:52;;;;;;;42.50;30.05;;;2.40;1.00;;;;;;4993543;28;20241;-75
2021/12/06 00:37:20;;;;;;;48.10;31.58;;;2.40;1.00;;;;;;4994116;28;20291;-76
2021/12/06 00:39:49;;;;;;;43.00;31.63;;;2.40;1.00;;;;;;4989252;28;20219;-75
2021/12/06 00:42:17;;;;;;;39.08;29.83;;;2.40;1.00;;;;;;4987937;28;20331;-76
2021/12/06 00:44:45;;;;;;;48.28;31.27;;;2.30;1.00;;;;;;4977916;28;20254;-75
2021/12/06 00:47:12;;;;;;;41.60;29.00;;;2.30;1.00;;;;;;4991663;28;20219;-76
2021/12/06 00:49:39;;;;;;;43.35;29.90;;;2.30;1.00;;;;;;4989100;28;20728;-76
2021/12/06 00:52:06;;;;;;;45.88;29.75;;;2.30;1.00;;;;;;4986018;28;20234;-77
2021/12/06 00:54:35;;;;;;;39.38;29.13;;;2.40;1.00;;;;;;4990192;28;20721;-77
2021/12/06 00:57:03;;;;;;;41.85;29.92;;;2.40;1.00;;;;;;4970888;28;20361;-75
2021/12/06 00:59:30;;;;;;;46.10;30.80;;;2.40;1.00;;;;;;4985445;28;20233;-75
2021/12/06 01:02:00;;;;;;;43.83;29.50;;;2.40;1.00;;;;;;4984123;28;20228;-76
2021/12/06 01:04:30;;;;;;;39.03;28.48;;;2.40;1.00;;;;;;4975707;28;20321;-76
2021/12/06 01:06:57;;;;;;;41.15;30.25;;;2.40;1.00;;;;;;4983104;28;20748;-75
2021/12/06 01:09:23;;;;;;;42.17;28.20;;;2.40;1.00;;;;;;4979692;28;21066;-75
2021/12/06 01:11:51;;;;;;;42.10;28.90;;;2.40;1.00;;;;;;4977934;28;20238;-76
2021/12/06 01:14:18;;;;;;;41.13;29.00;;;2.30;1.00;;;;;;4981953;28;20238;-76
2021/12/06 01:16:45;;;;;;;39.75;28.83;;;2.40;1.00;;;;;;4982732;28;21157;-76
2021/12/06 01:19:14;;;;;;;40.53;28.17;;;2.40;1.00;;;;;;4987257;28;20223;-77
2021/12/06 01:21:47;;;;;;;45.25;29.15;;;2.40;1.00;;;;;;4984388;28;20330;-77
2021/12/06 01:24:17;;;;;;;34.25;25.73;;;2.40;1.00;;;;;;4985664;28;20361;-76
2021/12/06 01:27:08;;;;;;;36.58;25.60;;;2.30;1.00;;;;;;4984874;28;20365;-76
2021/12/06 01:30:01;;;;;;;42.00;29.73;;;2.40;1.00;;;;;;4984914;28;21172;-76
2021/12/06 01:32:58;;;;;;;36.40;26.67;;;2.50;1.00;;;;;;4980719;28;21861;-76
2021/12/06 01:40:46;;;;;;;39.60;27.42;;;2.50;1.00;;;;;;4984263;28;20326;-77
2021/12/06 01:43:13;;;;;;;39.05;27.48;;;2.50;1.00;;;;;;4984485;28;20278;-77
2021/12/06 01:45:39;;;;;;;37.05;25.92;;;2.50;1.00;;;;;;4982010;28;20258;-76
2021/12/06 01:48:06;;;;;;;34.75;26.67;;;2.60;1.00;;;;;;4984489;28;20222;-77
2021/12/06 01:50:34;;;;;;;35.15;27.55;;;2.50;1.00;;;;;;4987726;28;20231;-76
2021/12/06 01:53:03;;;;;;;37.90;27.55;;;2.40;1.00;;;;;;4980544;28;20289;-77
2021/12/06 01:55:32;;;;;;;33.20;25.15;;;2.40;1.00;;;;;;4980627;28;20219;-74
2021/12/06 01:58:00;;;;;;;33.70;23.23;;;2.40;1.00;;;;;;4989708;28;20251;-78
2021/12/06 02:00:34;;;;;;;34.95;24.98;;;2.40;1.00;;;;;;4990862;28;21649;-76
2021/12/06 02:03:01;;;;;;;35.25;24.65;;;2.30;1.00;;;;;;4970840;28;20254;-76
2021/12/06 02:05:28;;;;;;;35.92;23.85;;;2.10;1.00;;;;;;4988817;28;21017;-76
2021/12/06 02:07:57;;;;;;;31.55;23.77;;;2.00;1.00;;;;;;4986577;28;20324;-75
2021/12/06 02:10:25;;;;;;;30.85;23.83;;;1.90;1.00;;;;;;4990795;28;20242;-76
2021/12/06 02:12:54;;;;;;;35.30;26.48;;;1.80;1.00;;;;;;4985928;28;20349;-76
2021/12/06 02:15:34;;;;;;;31.52;23.90;;;1.70;1.00;;;;;;4991198;28;20234;-76
2021/12/06 02:18:07;;;;;;;34.45;25.80;;;1.60;1.00;;;;;;4993428;28;20233;-76
2021/12/06 02:20:42;;;;;;;35.33;26.35;;;1.60;1.00;;;;;;4990854;28;20228;-76
2021/12/06 02:23:10;;;;;;;38.22;26.60;;;1.50;1.00;;;;;;4990226;28;20232;-76
2021/12/06 02:25:37;;;;;;;38.38;27.52;;;1.40;1.00;;;;;;4997043;28;20248;-76
2021/12/06 02:28:05;;;;;;;40.13;27.77;;;1.40;1.00;;;;;;4991336;28;20278;-75
2021/12/06 02:30:32;;;;;;;36.45;27.42;;;1.40;1.00;;;;;;4991223;28;20768;-76
2021/12/06 02:33:00;;;;;;;36.72;28.25;;;1.30;1.00;;;;;;4988167;28;20229;-76
2021/12/06 02:35:27;;;;;;;37.05;29.10;;;1.30;1.00;;;;;;4989762;28;20319;-75
2021/12/06 02:37:55;;;;;;;39.50;30.15;;;1.30;1.00;;;;;;4990223;28;20441;-75
2021/12/06 02:40:25;;;;;;;40.30;30.38;;;1.30;1.00;;;;;;4989960;28;20218;-76
2021/12/06 02:42:53;;;;;;;41.78;30.88;;;1.30;1.00;;;;;;4985159;28;20243;-75
2021/12/06 02:45:25;;;;;;;43.08;32.58;;;1.30;1.00;;;;;;4989535;28;20222;-75
2021/12/06 02:47:53;;;;;;;44.75;32.40;;;1.30;1.00;;;;;;4993155;28;20223;-77
2021/12/06 02:50:23;;;;;;;44.70;31.55;;;1.30;1.00;;;;;;4994103;28;20258;-76
2021/12/06 02:52:50;;;;;;;43.40;31.95;;;1.40;1.00;;;;;;4996742;28;20231;-76
2021/12/06 02:55:30;;;;;;;43.05;30.52;;;1.40;1.00;;;;;;4998353;28;20294;-75
2021/12/06 02:58:02;;;;;;;43.63;33.63;;;1.40;1.00;;;;;;4997531;28;20235;-76
2021/12/06 03:00:28;;;;;;;46.03;31.88;;;1.40;1.00;;;;;;4990672;28;20219;-75
2021/12/06 03:02:55;;;;;;;41.70;30.50;;;1.40;1.00;;;;;;4996498;28;20219;-76
2021/12/06 03:05:22;;;;;;;45.42;32.88;;;1.40;1.00;;;;;;5004235;28;20258;-75
2021/12/06 03:07:53;;;;;;;44.22;33.80;;;1.50;1.00;;;;;;5017123;28;20274;-75
2021/12/06 03:10:19;;;;;;;41.63;31.55;;;1.40;1.00;;;;;;5018963;28;20219;-76
2021/12/06 03:12:46;;;;;;;39.08;31.23;;;1.40;1.00;;;;;;5018995;28;20250;-76
2021/12/06 03:15:16;;;;;;;40.92;30.73;;;1.40;1.00;;;;;;5016451;28;20258;-76
2021/12/06 03:17:45;;;;;;;41.00;32.33;;;1.40;1.00;;;;;;5013512;28;20246;-74
2021/12/06 03:20:14;;;;;;;42.97;31.65;;;1.40;1.00;;;;;;4994575;28;20231;-76
2021/12/06 03:22:42;;;;;;;44.70;32.42;;;1.50;1.00;;;;;;5011130;28;20234;-77
2021/12/06 03:25:11;;;;;;;40.80;30.90;;;1.50;1.00;;;;;;4998546;28;21158;-77
2021/12/06 03:27:38;;;;;;;38.47;29.83;;;1.50;1.00;;;;;;4999232;28;20239;-76
2021/12/06 03:30:06;;;;;;;43.08;30.80;;;1.60;1.00;;;;;;4996325;28;20227;-77
2021/12/06 03:32:34;;;;;;;41.47;31.45;;;1.60;1.00;;;;;;4984647;28;20231;-77
2021/12/06 03:35:01;;;;;;;43.72;32.30;;;1.70;1.00;;;;;;4993678;28;20877;-76
2021/12/06 03:37:28;;;;;;;41.17;33.55;;;1.70;1.00;;;;;;4994827;28;20255;-75
2021/12/06 03:39:55;;;;;;;45.03;32.95;;;1.80;1.00;;;;;;4994103;28;20334;-76
2021/12/06 03:42:23;;;;;;;45.10;31.52;;;1.80;1.00;;;;;;4998598;28;20927;-76
2021/12/06 03:44:51;;;;;;;39.25;31.27;;;1.80;1.00;;;;;;4993732;28;20234;-75
2021/12/06 03:47:22;;;;;;;38.08;29.63;;;1.80;1.00;;;;;;4994786;28;21133;-76
2021/12/06 03:49:51;;;;;;;41.58;30.83;;;1.80;1.00;;;;;;4992220;28;20215;-76
2021/12/06 03:52:17;;;;;;;41.40;32.65;;;1.80;1.00;;;;;;4995379;28;20219;-76
2021/12/06 03:54:45;;;;;;;39.88;31.15;;;1.80;1.00;;;;;;4995078;28;20230;-75
2021/12/06 03:57:12;;;;;;;41.88;31.05;;;1.90;1.00;;;;;;4995001;28;20230;-75
2021/12/06 03:59:39;;;;;;;42.95;31.40;;;1.90;1.00;;;;;;4997542;28;20229;-75
2021/12/06 04:02:06;;;;;;;42.22;30.40;;;1.80;1.00;;;;;;4992877;28;20222;-76
2021/12/06 04:04:33;;;;;;;41.67;31.33;;;1.80;1.00;;;;;;4994604;28;20278;-75
2021/12/06 04:07:01;;;;;;;37.55;30.58;;;1.80;1.00;;;;;;4989811;28;20238;-75
2021/12/06 04:09:28;;;;;;;37.63;30.77;;;1.80;1.00;;;;;;4988110;28;21295;-75
2021/12/06 04:11:55;;;;;;;40.60;31.75;;;1.90;1.00;;;;;;4992455;28;20220;-76
2021/12/06 04:14:21;;;;;;;39.40;30.33;;;1.80;1.00;;;;;;4994978;28;20243;-76
2021/12/06 04:16:48;;;;;;;40.20;29.55;;;1.90;1.00;;;;;;4997539;28;20771;-76
2021/12/06 04:19:15;;;;;;;41.17;30.85;;;1.90;1.00;;;;;;4999222;28;20702;-76
2021/12/06 04:21:43;;;;;;;39.45;30.80;;;1.90;1.00;;;;;;4994738;28;20246;-76
2021/12/06 04:24:12;;;;;;;39.30;30.40;;;1.90;1.00;;;;;;4998387;28;21006;-76
2021/12/06 04:26:38;;;;;;;38.55;29.42;;;1.80;1.00;;;;;;4995160;28;20760;-76
2021/12/06 04:29:07;;;;;;;44.40;32.15;;;1.80;1.00;;;;;;4996127;28;20223;-76
2021/12/06 04:31:39;;;;;;;37.92;30.73;;;1.80;1.00;;;;;;4995080;28;20263;-76
2021/12/06 04:34:06;;;;;;;36.13;29.92;;;1.90;1.00;;;;;;4999271;28;20241;-76
2021/12/06 04:36:33;;;;;;;39.17;30.08;;;1.90;1.00;;;;;;4998107;28;21110;-76
2021/12/06 04:39:00;;;;;;;39.50;31.05;;;1.90;1.00;;;;;;4999219;28;21131;-76
2021/12/06 04:41:28;;;;;;;44.10;33.28;;;1.90;1.00;;;;;;4973556;28;20242;-75
2021/12/06 04:43:55;;;;;;;38.75;30.70;;;1.90;1.00;;;;;;4993594;28;20274;-75
2021/12/06 04:46:22;;;;;;;39.97;29.60;;;1.90;1.00;;;;;;4998205;28;20235;-75
2021/12/06 04:48:49;;;;;;;43.13;32.30;;;1.90;1.00;;;;;;4976831;28;20238;-75
2021/12/06 04:51:16;;;;;;;46.60;31.40;;;1.90;1.00;;;;;;4994320;28;20891;-75
2021/12/06 04:53:44;;;;;;;36.38;29.52;;;1.90;1.00;;;;;;4994731;28;20231;-75
2021/12/06 04:56:17;;;;;;;38.90;30.25;;;1.90;1.00;;;;;;4992696;28;20221;-76
2021/12/06 04:58:50;;;;;;;40.25;28.75;;;1.90;1.00;;;;;;4997041;28;20219;-76
2021/12/06 05:01:24;;;;;;;43.05;30.15;;;1.90;1.00;;;;;;4973243;28;20222;-77
2021/12/06 05:03:51;;;;;;;38.88;28.85;;;1.90;1.00;;;;;;4993831;28;20318;-75
2021/12/06 05:06:22;;;;;;;38.70;32.22;;;1.90;1.00;;;;;;4995583;28;20235;-75
2021/12/06 05:08:51;;;;;;;42.13;31.60;;;1.90;1.00;;;;;;4984683;28;20916;-75
2021/12/06 05:11:20;;;;;;;41.63;30.90;;;2.00;1.00;;;;;;4989239;28;20223;-76
2021/12/06 05:13:51;;;;;;;43.08;31.52;;;2.00;1.00;;;;;;4990183;28;21068;-75
2021/12/06 05:16:17;;;;;;;41.92;31.77;;;2.00;1.00;;;;;;4992460;28;20219;-75
2021/12/06 05:18:44;;;;;;;44.10;35.47;;;2.00;1.00;;;;;;5008644;28;20235;-76
2021/12/06 05:21:11;;;;;;;49.83;36.88;;;2.00;1.00;;;;;;5014998;28;20222;-75
2021/12/06 05:23:38;;;;;;;48.35;35.45;;;2.00;1.00;;;;;;5008668;28;20243;-76
2021/12/06 05:26:05;;;;;;;39.13;30.70;;;2.10;1.00;;;;;;5007689;28;20297;-75
2021/12/06 05:28:39;;;;;;;39.00;29.90;;;2.10;1.00;;;;;;4996614;28;20286;-76
2021/12/06 05:31:13;;;;;;;39.42;29.83;;;2.10;1.00;;;;;;5021983;28;20247;-76
2021/12/06 05:33:41;;;;;;;39.20;27.67;;;2.10;1.00;;;;;;5018624;28;20241;-77
2021/12/06 05:36:09;;;;;;;52.58;40.60;;;2.10;1.00;;;;;;5016281;28;20214;-77
2021/12/06 05:38:35;;;;;;;40.88;30.90;;;2.10;1.00;;;;;;5011915;28;20219;-77
2021/12/06 05:41:03;;;;;;;41.70;30.48;;;2.00;1.00;;;;;;4992648;28;23871;-78
2021/12/06 05:43:30;;;;;;;44.13;30.63;;;2.00;1.00;;;;;;4998978;28;20238;-79
2021/12/06 05:45:57;;;;;;;40.00;30.45;;;2.00;1.00;;;;;;4994986;28;20983;-77
2021/12/06 05:48:25;;;;;;;40.75;30.48;;;2.10;1.00;;;;;;4998729;28;21166;-76
2021/12/06 05:50:53;;;;;;;39.47;30.42;;;2.10;1.00;;;;;;4982498;28;21402;-77
2021/12/06 05:53:21;;;;;;;44.53;32.17;;;2.10;1.00;;;;;;4998675;28;20235;-77
2021/12/06 05:55:48;;;;;;;38.47;31.35;;;2.20;1.00;;;;;;4988203;28;20247;-78
2021/12/06 05:58:19;;;;;;;41.45;29.63;;;2.20;1.00;;;;;;5005317;28;20297;-78
2021/12/06 06:00:46;;;;;;;39.70;30.08;;;2.10;1.00;;;;;;4999485;28;21064;-78
2021/12/06 06:03:13;;;;;;;34.60;28.60;;;2.20;1.00;;;;;;5001380;28;20234;-78
2021/12/06 06:05:41;;;;;;;44.75;29.75;;;2.20;1.00;;;;;;4998747;28;20297;-79
2021/12/06 06:08:08;;;;;;;39.22;28.10;;;2.20;1.00;;;;;;4997959;28;20267;-80
2021/12/06 06:10:36;;;;;;;40.95;28.08;;;2.30;1.00;;;;;;4976766;28;20274;-78
2021/12/06 06:13:05;;;;;;;43.05;30.83;;;2.30;1.00;;;;;;4983941;28;21076;-81
2021/12/06 06:15:33;;;;;;;41.85;28.45;;;2.20;1.00;;;;;;4999324;28;20234;-80
2021/12/06 06:18:01;;;;;;;36.80;27.55;;;2.20;1.00;;;;;;5005728;28;20226;-78
2021/12/06 06:20:33;;;;;;;42.05;30.35;;;2.10;1.00;;;;;;4991492;28;20283;-79
2021/12/06 06:23:02;;;;;;;42.33;29.40;;;2.20;1.00;;;;;;5003354;28;21020;-79
2021/12/06 06:25:30;;;;;;;39.15;29.23;;;2.20;1.00;;;;;;5001789;28;20230;-81
2021/12/06 06:27:58;;;;;;;38.08;27.60;;;2.20;1.00;;;;;;5004920;28;20241;-79
2021/12/06 06:30:26;;;;;;;37.53;29.02;;;2.20;1.00;;;;;;5005043;28;20774;-82
2021/12/06 06:32:52;;;;;;;41.45;32.08;;;2.20;1.00;;;;;;5007025;28;20737;-79
2021/12/06 06:35:21;;;;;;;44.63;30.50;;;2.20;1.00;;;;;;4998432;28;20258;-79
2021/12/06 06:37:48;;;;;;;39.65;28.95;;;2.30;1.00;;;;;;5010484;28;20278;-78
2021/12/06 06:40:17;;;;;;;42.13;31.58;;;2.30;1.00;;;;;;5029941;28;20237;-79
2021/12/06 06:42:45;;;;;;;41.40;29.17;;;2.40;1.00;;;;;;5023141;28;20227;-79
2021/12/06 06:45:15;;;;;;;39.00;29.33;;;2.60;1.00;;;;;;5031035;28;20224;-79
2021/12/06 06:47:42;;;;;;;39.15;29.45;;;2.60;1.00;;;;;;5029338;28;20249;-80
2021/12/06 06:50:10;;;;;;;43.42;31.98;;;2.70;1.00;;;;;;5016824;28;20283;-81
2021/12/06 06:52:37;;;;;;;32.75;26.90;;;2.70;1.00;;;;;;5035023;28;20223;-78
2021/12/06 06:55:05;;;;;;;41.83;29.02;;;2.70;1.00;;;;;;5038529;28;20208;-79
2021/12/06 06:57:34;;;;;;;45.00;33.42;;;2.80;1.00;;;;;;5042865;28;20238;-80
2021/12/06 07:00:02;;;;;;;36.83;28.00;;;2.70;1.00;;;;;;5046991;28;20237;-82
2021/12/06 07:02:29;;;;;;;37.85;28.15;;;2.70;1.00;;;;;;5016153;28;20230;-81
2021/12/06 07:04:56;;;;;;;37.15;27.00;;;2.70;1.00;;;;;;5015005;28;20219;-82
2021/12/06 07:07:22;;;;;;;41.03;30.00;;;2.70;1.00;;;;;;5041450;28;20424;-82
2021/12/06 07:09:49;;;;;;;39.72;29.27;;;2.70;1.00;;;;;;5036732;28;20199;-82
2021/12/06 07:12:18;;;;;;;42.38;29.67;;;2.70;1.00;;;;;;5022322;28;20261;-82
2021/12/06 07:14:48;;;;;;;33.03;26.63;;;2.70;1.00;;;;;;5038454;28;20336;-82
2021/12/06 07:17:16;;;;;;;39.28;28.27;;;2.80;1.00;;;;;;5028179;28;20218;-83
2021/12/06 07:19:44;;;;;;;40.78;28.85;;;2.70;1.00;;;;;;5018515;28;20220;-81
2021/12/06 07:22:11;;;;;;;40.70;30.15;;;2.80;1.00;;;;;;5004142;28;20222;-82
2021/12/06 07:24:39;;;;;;;35.25;28.05;;;2.90;1.00;;;;;;5002283;28;20259;-82
2021/12/06 07:27:06;;;;;;;39.47;28.23;;;3.00;1.00;;;;;;5007865;28;20238;-81
2021/12/06 07:29:35;;;;;;;41.53;31.13;;;3.00;1.00;;;;;;5001433;28;20258;-81
2021/12/06 07:32:05;;;;;;;35.30;27.75;;;2.90;1.00;;;;;;5002995;28;20289;-82
2021/12/06 07:34:32;;;;;;;40.55;28.40;;;3.00;1.00;;;;;;4999833;28;20301;-82
2021/12/06 07:36:59;;;;;;;35.45;26.35;;;2.90;1.00;;;;;;5013639;28;20227;-82
2021/12/06 07:39:26;;;;;;;38.45;27.05;;;3.00;1.00;;;;;;4998718;28;20400;-81
2021/12/06 07:41:52;;;;;;;34.47;27.70;;;3.10;1.00;;;;;;5006036;28;20231;-82
2021/12/06 07:44:20;;;;;;;33.47;27.13;;;3.10;1.00;;;;;;5003104;28;20262;-81
2021/12/06 07:46:48;;;;;;;32.20;24.70;;;3.10;1.00;;;;;;5007429;28;20234;-81
2021/12/06 07:49:17;;;;;;;36.80;27.00;;;3.00;1.00;;;;;;5007105;28;20227;-82
2021/12/06 07:51:44;;;;;;;33.33;26.13;;;3.10;1.00;;;;;;5007872;28;20246;-82
2021/12/06 07:54:11;;;;;;;34.38;27.38;;;3.20;1.00;;;;;;4991682;28;20710;-82
2021/12/06 07:56:38;;;;;;;32.22;25.95;;;3.20;1.00;;;;;;4998709;28;20235;-81
2021/12/06 07:59:05;;;;;;;42.85;28.10;;;3.20;1.00;;;;;;5018851;28;20263;-80
2021/12/06 08:01:32;;;;;;;33.58;24.83;;;3.20;1.00;;;;;;5024129;28;20238;-80
2021/12/06 08:04:00;;;;;;;34.33;27.13;;;3.20;1.00;;;;;;5007201;28;20231;-81
2021/12/06 08:06:28;;;;;;;32.33;24.70;;;3.30;1.00;;;;;;5029350;28;20250;-82
2021/12/06 08:08:55;;;;;;;34.63;27.23;;;3.30;1.00;;;;;;5014939;28;20247;-82
2021/12/06 08:11:23;;;;;;;32.42;24.70;;;3.40;1.00;;;;;;5025520;28;20278;-84
2021/12/06 08:13:54;;;;;;;36.35;26.58;;;3.50;1.00;;;;;;5024963;28;20287;-82
2021/12/06 08:16:24;;;;;;;34.03;24.83;;;3.50;1.00;;;;;;5004321;28;20231;-82
2021/12/06 08:18:51;;;;;;;33.78;26.60;;;3.60;1.00;;;;;;5011708;28;20935;-82
2021/12/06 08:21:20;;;;;;;32.97;24.17;;;3.60;1.00;;;;;;5009843;28;20235;-82
2021/12/06 08:23:53;;;;;;;31.35;24.13;;;3.60;1.00;;;;;;5004259;28;20277;-81
2021/12/06 08:26:34;;;;;;;32.28;23.33;;;3.70;1.00;;;;;;5007185;28;20227;-82
2021/12/06 08:32:22;;;;;;;32.38;23.33;;;3.70;1.00;;;;;;4971229;28;20227;-82
2021/12/06 08:34:58;;;;;;;31.95;24.77;;;3.60;1.00;;;;;;4990206;28;20231;-80
2021/12/06 08:37:45;;;;;;;28.60;23.80;;;3.60;1.00;;;;;;5008603;28;20820;-81
2021/12/06 08:40:44;;;;;;;32.38;22.15;;;3.60;1.00;;;;;;4995636;28;20228;-84
2021/12/06 08:43:30;;;;;;;31.52;24.33;;;3.60;1.00;;;;;;5016997;28;20225;-84
2021/12/06 08:46:04;;;;;;;28.02;20.77;;;3.50;1.00;;;;;;5014148;28;20224;-80
2021/12/06 08:48:45;;;;;;;28.95;22.50;;;3.50;1.00;;;;;;5013006;28;20298;-82
2021/12/06 08:51:22;;;;;;;28.67;21.63;;;3.60;1.00;;;;;;5013155;28;20282;-82
2021/12/06 08:53:51;;;;;;;29.50;22.48;;;3.60;1.00;;;;;;5012452;28;20230;-81
2021/12/06 08:56:20;;;;;;;30.33;22.52;;;3.70;1.00;;;;;;5013342;28;20222;-82
2021/12/06 08:58:52;;;;;;;30.55;21.80;;;3.60;1.00;;;;;;5009106;28;20222;-81
2021/12/06 09:01:33;;;;;;;25.20;21.67;;;3.70;1.00;;;;;;5003812;28;20300;-81
2021/12/06 09:04:03;;;;;;;29.88;21.40;;;3.70;1.00;;;;;;5002734;28;20231;-82
2021/12/06 09:06:40;;;;;;;33.28;23.02;;;3.80;1.00;;;;;;5002909;28;20587;-82
2021/12/06 09:09:14;;;;;;;28.30;21.02;;;3.90;1.00;;;;;;5001228;28;20333;-79
2021/12/06 09:11:46;;;;;;;30.95;23.00;;;3.80;1.00;;;;;;4990795;28;20235;-80
2021/12/06 09:14:15;;;;;;;31.58;23.45;;;3.90;1.00;;;;;;5002967;28;20249;-80
2021/12/06 09:16:43;;;;;;;32.47;24.08;;;4.00;1.00;;;;;;5009795;28;20223;-81
2021/12/06 09:19:12;;;;;;;27.42;21.58;;;4.00;1.00;;;;;;5009561;28;20227;-84
2021/12/06 09:21:41;;;;;;;30.10;22.45;;;4.10;1.00;;;;;;4994070;28;20239;-80
2021/12/06 09:24:10;;;;;;;25.83;21.73;;;4.20;1.00;;;;;;4990118;28;20230;-80
2021/12/06 09:26:38;;;;;;;35.78;25.00;;;4.20;1.00;;;;;;5004381;28;21374;-80
2021/12/06 09:29:06;;;;;;;29.50;24.85;;;4.40;1.00;;;;;;5002239;28;20249;-81
2021/12/06 09:31:51;;;;;;;28.35;22.70;;;4.40;1.00;;;;;;4984524;28;20220;-81
2021/12/06 09:34:19;;;;;;;30.75;22.88;;;4.40;1.00;;;;;;5003590;28;20689;-82
2021/12/06 09:36:46;;;;;;;62.28;55.85;;;4.40;1.00;;;;;;5003953;28;20211;-82
2021/12/06 09:39:14;;;;;;;32.10;23.50;;;4.40;1.00;;;;;;4983228;28;20269;-81
2021/12/06 09:41:42;;;;;;;30.13;21.38;;;4.40;1.00;;;;;;5003976;28;20229;-82
2021/12/06 09:44:10;;;;;;;26.67;21.73;;;4.40;1.00;;;;;;5014125;28;20227;-81
2021/12/06 09:46:38;;;;;;;28.13;21.25;;;4.30;1.00;;;;;;5003356;28;21794;-79
2021/12/06 09:49:11;;;;;;;32.08;23.60;;;4.40;1.00;;;;;;5010631;28;20358;-79
2021/12/06 09:51:40;;;;;;;27.35;22.13;;;4.40;1.00;;;;;;5013596;28;20231;-82
2021/12/06 09:54:08;;;;;;;28.10;21.92;;;4.40;1.00;;;;;;5016582;28;20227;-81
2021/12/06 09:56:38;;;;;;;26.73;22.10;;;4.40;1.00;;;;;;5020146;28;20246;-83
2021/12/06 10:02:46;;;;;;;26.73;21.58;;;4.40;1.00;;;;;;4949338;28;20378;-82
2021/12/06 10:05:20;;;;;;;26.70;21.58;;;4.30;1.00;;;;;;4935567;28;20352;-80
2021/12/06 10:07:50;;;;;;;30.33;22.52;;;4.30;1.00;;;;;;4987322;28;20235;-81
2021/12/06 10:10:17;;;;;;;29.00;21.60;;;4.40;1.00;;;;;;4991583;28;20290;-78
2021/12/06 10:12:48;;;;;;;29.67;23.30;;;4.30;1.00;;;;;;5008344;28;20223;-79
2021/12/06 10:15:15;;;;;;;29.88;21.40;;;4.40;1.00;;;;;;5007366;28;20225;-79
2021/12/06 10:17:42;;;;;;;28.27;21.33;;;4.30;1.00;;;;;;5007444;28;20322;-81
2021/12/06 10:20:12;;;;;;;27.52;20.95;;;4.30;1.00;;;;;;5004746;28;20233;-83
2021/12/06 10:22:39;;;;;;;24.58;19.77;;;4.30;1.00;;;;;;5017922;28;20203;-81
2021/12/06 10:25:09;;;;;;;27.73;20.90;;;4.30;1.00;;;;;;4989260;28;20299;-83
2021/12/06 10:27:36;;;;;;;24.13;19.95;;;4.40;1.00;;;;;;5006494;28;20975;-84
2021/12/06 10:30:08;;;;;;;25.58;20.35;;;4.40;1.00;;;;;;5011799;28;20230;-84
2021/12/06 10:32:39;;;;;;;21.75;17.40;;;4.40;1.00;;;;;;5014253;28;20238;-84
2021/12/06 10:35:09;;;;;;;28.52;20.52;;;4.40;1.00;;;;;;4991121;28;20242;-83
2021/12/06 10:37:45;;;;;;;25.83;19.25;;;4.40;1.00;;;;;;5017960;28;20597;-84
2021/12/06 10:40:19;;;;;;;21.90;16.73;;;4.40;1.00;;;;;;4999490;28;20228;-82
2021/12/06 10:42:49;;;;;;;23.90;16.65;;;4.50;1.00;;;;;;4986315;28;20295;-84
2021/12/06 10:45:19;;;;;;;22.65;17.25;;;4.40;1.00;;;;;;5004575;28;21411;-84
2021/12/06 10:48:07;;;;;;;21.50;16.65;;;4.50;1.00;;;;;;4986166;28;20800;-84
2021/12/06 10:50:35;;;;;;;22.45;16.23;;;4.40;1.00;;;;;;5003508;28;20210;-82
2021/12/06 10:53:04;;;;;;;20.92;15.13;;;4.40;1.00;;;;;;4998412;28;20226;-78
2021/12/06 10:55:34;;;;;;;21.92;17.00;;;4.50;1.00;;;;;;4995927;28;20251;-75
2021/12/06 10:58:04;;;;;;;21.30;16.00;;;4.60;1.00;;;;;;4995005;28;20215;-75
2021/12/06 11:00:36;;;;;;;19.70;15.02;;;4.60;1.00;;;;;;4990628;28;20231;-77
2021/12/06 11:03:04;;;;;;;22.25;16.40;;;4.60;1.00;;;;;;4991345;28;20311;-76
2021/12/06 11:05:34;;;;;;;20.20;15.70;;;4.70;1.00;;;;;;4995201;28;20228;-77
2021/12/06 11:08:14;;;;;;;20.13;17.13;;;4.70;1.00;;;;;;4997664;28;20306;-76
2021/12/06 11:10:43;;;;;;;24.40;15.88;;;4.70;1.00;;;;;;4998780;28;20227;-75
2021/12/06 11:13:16;;;;;;;19.80;15.70;;;4.70;1.00;;;;;;5004307;28;21457;-77
2021/12/06 11:16:01;;;;;;;21.95;16.98;;;4.60;1.00;;;;;;5010308;28;20265;-77
2021/12/06 11:18:44;;;;;;;22.10;15.68;;;4.70;1.00;;;;;;5006245;28;20254;-77
2021/12/06 11:21:18;;;;;;;18.85;15.38;;;4.70;1.00;;;;;;5010072;28;20280;-75
2021/12/06 11:24:03;;;;;;;21.58;16.60;;;4.60;1.00;;;;;;5003828;28;20764;-77
2021/12/06 11:26:31;;;;;;;16.77;13.73;;;4.50;1.00;;;;;;5010785;28;20286;-79
2021/12/06 11:29:07;;;;;;;22.23;16.20;;;4.50;1.00;;;;;;4990498;28;20234;-76
2021/12/06 11:31:34;;;;;;;19.20;14.20;;;4.50;1.00;;;;;;5006245;28;20286;-76
2021/12/06 11:34:03;;;;;;;18.75;14.30;;;4.50;1.00;;;;;;5005516;28;20252;-80
2021/12/06 11:36:30;;;;;;;22.42;14.48;;;4.50;1.00;;;;;;5006321;28;20275;-78
2021/12/06 11:39:02;;;;;;;17.25;13.15;;;4.50;1.00;;;;;;5003085;28;20423;-80
2021/12/06 11:41:29;;;;;;;18.85;14.52;;;4.50;1.00;;;;;;5009705;28;20228;-77
2021/12/06 11:43:57;;;;;;;16.25;14.05;;;4.50;1.00;;;;;;5003824;28;20235;-78
2021/12/06 11:46:30;;;;;;;16.67;12.80;;;4.40;1.00;;;;;;4980889;28;20228;-76
2021/12/06 11:48:56;;;;;;;15.63;12.30;;;4.40;1.00;;;;;;4997455;28;20265;-75
2021/12/06 11:51:25;;;;;;;15.18;12.85;;;4.40;1.00;;;;;;4996651;28;20258;-76
2021/12/06 11:53:55;;;;;;;19.33;13.68;;;4.40;1.00;;;;;;4998849;28;20234;-78
2021/12/06 11:56:27;;;;;;;16.23;12.45;;;4.50;1.00;;;;;;4999991;28;20725;-77
2021/12/06 11:58:56;;;;;;;16.27;12.27;;;4.50;1.00;;;;;;4996518;28;20812;-77
2021/12/06 12:01:27;;;;;;;15.88;12.40;;;4.50;1.00;;;;;;5001052;28;20318;-77
2021/12/06 12:03:56;;;;;;;14.77;12.95;;;4.50;1.00;;;;;;4998554;28;20738;-76
2021/12/06 12:06:27;;;;;;;16.23;12.85;;;4.50;1.00;;;;;;4996151;28;21465;-76
2021/12/06 12:09:06;;;;;;;15.77;14.07;;;4.50;1.00;;;;;;5001111;28;20956;-76
2021/12/06 12:11:57;;;;;;;22.90;19.77;;;4.50;1.00;;;;;;5002898;28;20222;-76
2021/12/06 12:14:29;;;;;;;17.13;14.02;;;4.50;1.00;;;;;;5002081;28;20219;-78
2021/12/06 12:16:57;;;;;;;17.98;14.10;;;4.50;1.00;;;;;;5009117;28;20230;-78
2021/12/06 12:19:24;;;;;;;14.85;13.30;;;4.50;1.00;;;;;;5001350;28;20752;-78
2021/12/06 12:21:51;;;;;;;16.88;12.75;;;4.40;1.00;;;;;;5001902;28;20255;-76
2021/12/06 12:24:18;;;;;;;16.33;12.93;;;4.50;1.00;;;;;;5002126;28;20235;-78
2021/12/06 12:26:56;;;;;;;18.20;14.10;;;4.40;1.00;;;;;;5003367;28;20222;-77
2021/12/06 12:29:26;;;;;;;15.95;12.95;;;4.40;1.00;;;;;;4998018;28;20245;-76
2021/12/06 12:31:57;;;;;;;20.83;14.77;;;4.50;1.00;;;;;;5014891;28;20230;-78
2021/12/06 12:34:27;;;;;;;20.85;16.88;;;4.50;1.00;;;;;;5004405;28;20242;-76
2021/12/06 12:36:55;;;;;;;17.38;12.95;;;4.50;1.00;;;;;;5003000;28;20229;-76
2021/12/06 12:39:23;;;;;;;17.50;13.25;;;4.50;1.00;;;;;;5010207;28;20227;-77
2021/12/06 12:41:55;;;;;;;16.63;12.50;;;4.50;1.00;;;;;;5013558;28;20231;-78
2021/12/06 12:44:22;;;;;;;15.88;12.77;;;4.60;1.00;;;;;;5006913;28;20269;-78
2021/12/06 12:46:52;;;;;;;16.83;13.13;;;4.60;1.00;;;;;;5006802;28;21119;-77
2021/12/06 12:49:23;;;;;;;13.70;11.15;;;4.60;1.00;;;;;;5010058;28;20244;-76
2021/12/06 12:51:52;;;;;;;15.15;13.38;;;4.50;1.00;;;;;;5010185;28;20219;-78
2021/12/06 12:54:25;;;;;;;14.63;12.65;;;4.50;1.00;;;;;;5006257;28;20245;-77
2021/12/06 12:56:56;;;;;;;14.45;11.45;;;4.50;1.00;;;;;;5013577;28;20328;-80
2021/12/06 12:59:32;;;;;;;16.08;12.30;;;4.60;1.00;;;;;;5002187;28;20238;-77
2021/12/06 13:02:29;;;;;;;21.48;13.90;;;4.60;1.00;;;;;;5015472;28;20253;-77
2021/12/06 13:05:25;;;;;;;21.13;14.45;;;4.70;1.00;;;;;;5016240;28;20231;-77
2021/12/06 13:08:05;;;;;;;16.55;13.93;;;4.70;1.00;;;;;;5021397;28;20223;-79
2021/12/06 13:10:39;;;;;;;20.75;17.40;;;4.70;1.00;;;;;;5022896;28;20234;-79
2021/12/06 13:13:15;;;;;;;20.70;15.77;;;4.70;1.00;;;;;;5017573;28;20237;-77